sensor_id;sensor_type;location;lat;lon;timestamp;P1;durP1;ratioP1;P2;durP2;ratioP2
19137;SDS011;68178;52.188;5.598;2023-04-08T00:00:15;38.67;;;18.95;;
19137;SDS011;68178;52.188;5.598;2023-04-08T00:02:41;42.38;;;21.30;;
19137;SDS011;68178;52.188;5.598;2023-04-08T00:05:07;26.15;;;19.50;;
19137;SDS011;68178;52.188;5.598;2023-04-08T00:07:32;30.13;;;19.48;;
19137;SDS011;68178;52.188;5.598;2023-04-08T00:09:58;24.75;;;18.42;;
19137;SDS011;68178;52.188;5.598;2023-04-08T00:12:24;25.75;;;17.23;;
19137;SDS011;68178;52.188;5.598;2023-04-08T00:14:49;30.35;;;16.55;;
19137;SDS011;68178;52.188;5.598;2023-04-08T00:17:15;21.30;;;16.08;;
19137;SDS011;68178;52.188;5.598;2023-04-08T00:19:40;29.42;;;15.90;;
19137;SDS011;68178;52.188;5.598;2023-04-08T00:22:06;20.05;;;14.98;;
19137;SDS011;68178;52.188;5.598;2023-04-08T00:24:32;17.70;;;14.20;;
19137;SDS011;68178;52.188;5.598;2023-04-08T00:26:58;22.80;;;15.07;;
19137;SDS011;68178;52.188;5.598;2023-04-08T00:29:23;18.83;;;14.65;;
19137;SDS011;68178;52.188;5.598;2023-04-08T00:31:49;21.52;;;15.13;;
19137;SDS011;68178;52.188;5.598;2023-04-08T00:34:15;19.70;;;15.20;;
19137;SDS011;68178;52.188;5.598;2023-04-08T00:36:41;23.73;;;14.82;;
19137;SDS011;68178;52.188;5.598;2023-04-08T00:39:06;23.15;;;16.30;;
19137;SDS011;68178;52.188;5.598;2023-04-08T00:41:33;23.88;;;16.58;;
19137;SDS011;68178;52.188;5.598;2023-04-08T00:44:00;19.92;;;15.75;;
19137;SDS011;68178;52.188;5.598;2023-04-08T00:46:25;29.27;;;15.88;;
19137;SDS011;68178;52.188;5.598;2023-04-08T00:48:51;21.92;;;15.65;;
19137;SDS011;68178;52.188;5.598;2023-04-08T00:51:18;27.65;;;15.80;;
19137;SDS011;68178;52.188;5.598;2023-04-08T00:53:44;46.15;;;16.70;;
19137;SDS011;68178;52.188;5.598;2023-04-08T00:56:10;29.73;;;16.92;;
19137;SDS011;68178;52.188;5.598;2023-04-08T00:58:35;24.88;;;16.17;;
19137;SDS011;68178;52.188;5.598;2023-04-08T01:01:06;23.13;;;17.33;;
19137;SDS011;68178;52.188;5.598;2023-04-08T01:09:15;44.55;;;16.60;;
19137;SDS011;68178;52.188;5.598;2023-04-08T01:11:43;49.88;;;18.13;;
19137;SDS011;68178;52.188;5.598;2023-04-08T01:14:14;41.30;;;16.85;;
19137;SDS011;68178;52.188;5.598;2023-04-08T01:16:44;36.88;;;16.02;;
19137;SDS011;68178;52.188;5.598;2023-04-08T01:19:10;32.55;;;15.55;;
19137;SDS011;68178;52.188;5.598;2023-04-08T01:21:48;22.70;;;16.65;;
19137;SDS011;68178;52.188;5.598;2023-04-08T01:24:28;38.13;;;17.95;;
19137;SDS011;68178;52.188;5.598;2023-04-08T01:26:57;25.48;;;16.75;;
19137;SDS011;68178;52.188;5.598;2023-04-08T01:29:24;22.67;;;17.63;;
19137;SDS011;68178;52.188;5.598;2023-04-08T01:31:50;21.85;;;17.10;;
19137;SDS011;68178;52.188;5.598;2023-04-08T01:34:18;34.40;;;16.45;;
19137;SDS011;68178;52.188;5.598;2023-04-08T01:36:45;30.60;;;17.33;;
19137;SDS011;68178;52.188;5.598;2023-04-08T01:39:11;28.92;;;16.92;;
19137;SDS011;68178;52.188;5.598;2023-04-08T01:41:38;21.90;;;16.83;;
19137;SDS011;68178;52.188;5.598;2023-04-08T01:44:05;34.13;;;17.63;;
19137;SDS011;68178;52.188;5.598;2023-04-08T01:46:30;21.17;;;16.13;;
19137;SDS011;68178;52.188;5.598;2023-04-08T01:48:57;22.55;;;16.33;;
19137;SDS011;68178;52.188;5.598;2023-04-08T01:51:23;50.03;;;18.08;;
19137;SDS011;68178;52.188;5.598;2023-04-08T01:53:51;22.90;;;16.75;;
19137;SDS011;68178;52.188;5.598;2023-04-08T01:56:16;26.13;;;15.38;;
19137;SDS011;68178;52.188;5.598;2023-04-08T01:58:47;126.10;;;21.67;;
19137;SDS011;68178;52.188;5.598;2023-04-08T02:01:17;30.15;;;16.05;;
19137;SDS011;68178;52.188;5.598;2023-04-08T02:03:46;27.00;;;15.27;;
19137;SDS011;68178;52.188;5.598;2023-04-08T02:06:12;64.85;;;17.40;;
19137;SDS011;68178;52.188;5.598;2023-04-08T02:08:38;31.05;;;15.23;;
19137;SDS011;68178;52.188;5.598;2023-04-08T02:11:04;73.35;;;16.85;;
19137;SDS011;68178;52.188;5.598;2023-04-08T02:13:30;39.83;;;15.30;;
19137;SDS011;68178;52.188;5.598;2023-04-08T02:16:03;52.38;;;16.35;;
19137;SDS011;68178;52.188;5.598;2023-04-08T02:18:57;28.88;;;14.10;;
19137;SDS011;68178;52.188;5.598;2023-04-08T02:21:28;52.78;;;15.82;;
19137;SDS011;68178;52.188;5.598;2023-04-08T02:23:58;28.30;;;14.63;;
19137;SDS011;68178;52.188;5.598;2023-04-08T02:26:29;24.83;;;14.88;;
19137;SDS011;68178;52.188;5.598;2023-04-08T02:28:58;31.08;;;15.23;;
19137;SDS011;68178;52.188;5.598;2023-04-08T02:31:25;89.93;;;16.48;;
19137;SDS011;68178;52.188;5.598;2023-04-08T02:33:51;80.43;;;16.98;;
19137;SDS011;68178;52.188;5.598;2023-04-08T02:36:17;19.10;;;14.13;;
19137;SDS011;68178;52.188;5.598;2023-04-08T02:38:46;61.28;;;14.80;;
19137;SDS011;68178;52.188;5.598;2023-04-08T02:41:18;19.27;;;13.52;;
19137;SDS011;68178;52.188;5.598;2023-04-08T02:43:45;17.20;;;13.45;;
19137;SDS011;68178;52.188;5.598;2023-04-08T02:46:11;27.23;;;12.85;;
19137;SDS011;68178;52.188;5.598;2023-04-08T02:48:37;21.27;;;12.40;;
19137;SDS011;68178;52.188;5.598;2023-04-08T02:51:03;14.88;;;11.73;;
19137;SDS011;68178;52.188;5.598;2023-04-08T02:53:28;63.40;;;14.85;;
19137;SDS011;68178;52.188;5.598;2023-04-08T02:55:54;17.58;;;13.30;;
19137;SDS011;68178;52.188;5.598;2023-04-08T02:58:20;30.25;;;12.70;;
19137;SDS011;68178;52.188;5.598;2023-04-08T03:00:45;20.77;;;12.05;;
19137;SDS011;68178;52.188;5.598;2023-04-08T03:03:11;27.40;;;12.70;;
19137;SDS011;68178;52.188;5.598;2023-04-08T03:05:36;101.85;;;17.45;;
19137;SDS011;68178;52.188;5.598;2023-04-08T03:08:02;80.78;;;14.60;;
19137;SDS011;68178;52.188;5.598;2023-04-08T03:10:27;152.55;;;20.52;;
19137;SDS011;68178;52.188;5.598;2023-04-08T03:12:53;22.55;;;13.27;;
19137;SDS011;68178;52.188;5.598;2023-04-08T03:15:18;21.00;;;13.13;;
19137;SDS011;68178;52.188;5.598;2023-04-08T03:17:44;75.70;;;15.40;;
19137;SDS011;68178;52.188;5.598;2023-04-08T03:20:10;99.00;;;15.82;;
19137;SDS011;68178;52.188;5.598;2023-04-08T03:22:35;25.02;;;12.75;;
19137;SDS011;68178;52.188;5.598;2023-04-08T03:25:01;23.80;;;12.02;;
19137;SDS011;68178;52.188;5.598;2023-04-08T03:27:27;14.43;;;9.90;;
19137;SDS011;68178;52.188;5.598;2023-04-08T03:29:53;36.35;;;12.63;;
19137;SDS011;68178;52.188;5.598;2023-04-08T03:32:19;14.68;;;9.80;;
19137;SDS011;68178;52.188;5.598;2023-04-08T03:34:44;10.88;;;9.25;;
19137;SDS011;68178;52.188;5.598;2023-04-08T03:37:10;28.75;;;10.77;;
19137;SDS011;68178;52.188;5.598;2023-04-08T03:39:36;12.07;;;9.38;;
19137;SDS011;68178;52.188;5.598;2023-04-08T03:42:02;16.58;;;9.15;;
19137;SDS011;68178;52.188;5.598;2023-04-08T03:44:28;20.73;;;9.75;;
19137;SDS011;68178;52.188;5.598;2023-04-08T03:46:54;18.40;;;9.73;;
19137;SDS011;68178;52.188;5.598;2023-04-08T03:49:19;10.98;;;9.88;;
19137;SDS011;68178;52.188;5.598;2023-04-08T03:51:45;27.45;;;10.23;;
19137;SDS011;68178;52.188;5.598;2023-04-08T03:54:10;50.50;;;12.13;;
19137;SDS011;68178;52.188;5.598;2023-04-08T03:56:36;18.98;;;10.13;;
19137;SDS011;68178;52.188;5.598;2023-04-08T03:59:01;26.17;;;11.25;;
19137;SDS011;68178;52.188;5.598;2023-04-08T04:01:27;106.70;;;17.88;;
19137;SDS011;68178;52.188;5.598;2023-04-08T04:03:54;15.00;;;10.75;;
19137;SDS011;68178;52.188;5.598;2023-04-08T04:06:19;46.88;;;13.55;;
19137;SDS011;68178;52.188;5.598;2023-04-08T04:08:45;14.45;;;10.68;;
19137;SDS011;68178;52.188;5.598;2023-04-08T04:11:10;16.35;;;11.88;;
19137;SDS011;68178;52.188;5.598;2023-04-08T04:13:36;18.13;;;11.57;;
19137;SDS011;68178;52.188;5.598;2023-04-08T04:16:01;15.40;;;10.27;;
19137;SDS011;68178;52.188;5.598;2023-04-08T04:18:27;17.58;;;12.00;;
19137;SDS011;68178;52.188;5.598;2023-04-08T04:20:53;19.08;;;12.52;;
19137;SDS011;68178;52.188;5.598;2023-04-08T04:23:18;17.77;;;12.38;;
19137;SDS011;68178;52.188;5.598;2023-04-08T04:25:44;15.95;;;9.77;;
19137;SDS011;68178;52.188;5.598;2023-04-08T04:28:12;15.43;;;10.75;;
19137;SDS011;68178;52.188;5.598;2023-04-08T04:30:38;13.55;;;10.90;;
19137;SDS011;68178;52.188;5.598;2023-04-08T04:33:04;13.77;;;9.75;;
19137;SDS011;68178;52.188;5.598;2023-04-08T04:35:30;11.40;;;9.52;;
19137;SDS011;68178;52.188;5.598;2023-04-08T04:37:56;12.27;;;9.45;;
19137;SDS011;68178;52.188;5.598;2023-04-08T04:40:21;11.30;;;8.50;;
19137;SDS011;68178;52.188;5.598;2023-04-08T04:42:47;13.07;;;9.85;;
19137;SDS011;68178;52.188;5.598;2023-04-08T04:45:12;15.18;;;10.32;;
19137;SDS011;68178;52.188;5.598;2023-04-08T04:47:38;10.60;;;9.13;;
19137;SDS011;68178;52.188;5.598;2023-04-08T04:50:04;13.55;;;9.88;;
19137;SDS011;68178;52.188;5.598;2023-04-08T04:52:30;12.25;;;8.32;;
19137;SDS011;68178;52.188;5.598;2023-04-08T04:54:56;11.50;;;8.30;;
19137;SDS011;68178;52.188;5.598;2023-04-08T04:57:22;11.07;;;9.05;;
19137;SDS011;68178;52.188;5.598;2023-04-08T04:59:48;9.85;;;8.35;;
19137;SDS011;68178;52.188;5.598;2023-04-08T05:02:13;9.50;;;8.32;;
19137;SDS011;68178;52.188;5.598;2023-04-08T05:04:39;11.60;;;10.40;;
19137;SDS011;68178;52.188;5.598;2023-04-08T05:07:05;10.15;;;8.93;;
19137;SDS011;68178;52.188;5.598;2023-04-08T05:09:30;9.65;;;8.43;;
19137;SDS011;68178;52.188;5.598;2023-04-08T05:11:56;18.40;;;8.95;;
19137;SDS011;68178;52.188;5.598;2023-04-08T05:14:21;9.32;;;8.27;;
19137;SDS011;68178;52.188;5.598;2023-04-08T05:16:47;9.65;;;8.57;;
19137;SDS011;68178;52.188;5.598;2023-04-08T05:19:12;13.55;;;8.43;;
19137;SDS011;68178;52.188;5.598;2023-04-08T05:21:38;8.40;;;7.35;;
19137;SDS011;68178;52.188;5.598;2023-04-08T05:24:03;24.73;;;7.47;;
19137;SDS011;68178;52.188;5.598;2023-04-08T05:26:29;6.40;;;5.80;;
19137;SDS011;68178;52.188;5.598;2023-04-08T05:28:55;7.28;;;6.57;;
19137;SDS011;68178;52.188;5.598;2023-04-08T05:31:20;9.30;;;7.75;;
19137;SDS011;68178;52.188;5.598;2023-04-08T05:33:46;9.05;;;8.15;;
19137;SDS011;68178;52.188;5.598;2023-04-08T05:36:12;9.40;;;8.50;;
19137;SDS011;68178;52.188;5.598;2023-04-08T05:38:38;10.68;;;7.72;;
19137;SDS011;68178;52.188;5.598;2023-04-08T05:41:04;15.15;;;11.05;;
19137;SDS011;68178;52.188;5.598;2023-04-08T05:43:33;11.77;;;9.85;;
19137;SDS011;68178;52.188;5.598;2023-04-08T05:45:59;15.05;;;10.05;;
19137;SDS011;68178;52.188;5.598;2023-04-08T05:48:33;10.27;;;8.70;;
19137;SDS011;68178;52.188;5.598;2023-04-08T05:50:59;9.10;;;8.10;;
19137;SDS011;68178;52.188;5.598;2023-04-08T05:53:25;7.95;;;7.15;;
19137;SDS011;68178;52.188;5.598;2023-04-08T05:55:50;8.55;;;7.65;;
19137;SDS011;68178;52.188;5.598;2023-04-08T05:58:16;9.32;;;8.43;;
19137;SDS011;68178;52.188;5.598;2023-04-08T06:00:41;8.18;;;7.30;;
19137;SDS011;68178;52.188;5.598;2023-04-08T06:03:07;9.88;;;8.50;;
19137;SDS011;68178;52.188;5.598;2023-04-08T06:05:32;10.57;;;9.30;;
19137;SDS011;68178;52.188;5.598;2023-04-08T06:07:58;11.80;;;10.45;;
19137;SDS011;68178;52.188;5.598;2023-04-08T06:10:23;10.80;;;9.70;;
19137;SDS011;68178;52.188;5.598;2023-04-08T06:12:49;10.20;;;8.27;;
19137;SDS011;68178;52.188;5.598;2023-04-08T06:15:15;14.32;;;10.63;;
19137;SDS011;68178;52.188;5.598;2023-04-08T06:17:40;24.88;;;15.15;;
19137;SDS011;68178;52.188;5.598;2023-04-08T06:20:06;35.45;;;23.08;;
19137;SDS011;68178;52.188;5.598;2023-04-08T06:22:35;34.33;;;24.05;;
19137;SDS011;68178;52.188;5.598;2023-04-08T06:25:01;29.17;;;23.42;;
19137;SDS011;68178;52.188;5.598;2023-04-08T06:27:27;22.50;;;18.95;;
19137;SDS011;68178;52.188;5.598;2023-04-08T06:29:53;20.25;;;17.17;;
19137;SDS011;68178;52.188;5.598;2023-04-08T06:32:19;21.98;;;17.65;;
19137;SDS011;68178;52.188;5.598;2023-04-08T06:34:45;19.13;;;16.20;;
19137;SDS011;68178;52.188;5.598;2023-04-08T06:37:11;18.65;;;16.13;;
19137;SDS011;68178;52.188;5.598;2023-04-08T06:39:38;20.35;;;15.75;;
19137;SDS011;68178;52.188;5.598;2023-04-08T06:42:04;17.27;;;15.45;;
19137;SDS011;68178;52.188;5.598;2023-04-08T06:44:30;22.85;;;16.98;;
19137;SDS011;68178;52.188;5.598;2023-04-08T06:46:55;27.30;;;16.27;;
19137;SDS011;68178;52.188;5.598;2023-04-08T06:49:21;20.05;;;14.82;;
19137;SDS011;68178;52.188;5.598;2023-04-08T06:51:46;23.35;;;15.27;;
19137;SDS011;68178;52.188;5.598;2023-04-08T06:54:12;18.67;;;13.82;;
19137;SDS011;68178;52.188;5.598;2023-04-08T06:56:38;14.75;;;12.82;;
19137;SDS011;68178;52.188;5.598;2023-04-08T06:59:04;16.73;;;13.63;;
19137;SDS011;68178;52.188;5.598;2023-04-08T07:01:30;15.45;;;12.95;;
19137;SDS011;68178;52.188;5.598;2023-04-08T07:03:56;17.05;;;12.27;;
19137;SDS011;68178;52.188;5.598;2023-04-08T07:06:21;16.67;;;11.60;;
19137;SDS011;68178;52.188;5.598;2023-04-08T07:08:47;13.30;;;11.27;;
19137;SDS011;68178;52.188;5.598;2023-04-08T07:11:13;13.77;;;12.38;;
19137;SDS011;68178;52.188;5.598;2023-04-08T07:13:38;12.77;;;11.45;;
19137;SDS011;68178;52.188;5.598;2023-04-08T07:16:04;13.70;;;11.48;;
19137;SDS011;68178;52.188;5.598;2023-04-08T07:18:32;14.13;;;11.13;;
19137;SDS011;68178;52.188;5.598;2023-04-08T07:20:58;14.02;;;11.32;;
19137;SDS011;68178;52.188;5.598;2023-04-08T07:23:25;10.80;;;9.73;;
19137;SDS011;68178;52.188;5.598;2023-04-08T07:25:51;12.27;;;9.55;;
19137;SDS011;68178;52.188;5.598;2023-04-08T07:28:17;11.30;;;10.10;;
19137;SDS011;68178;52.188;5.598;2023-04-08T07:30:43;12.80;;;9.68;;
19137;SDS011;68178;52.188;5.598;2023-04-08T07:33:09;11.73;;;10.60;;
19137;SDS011;68178;52.188;5.598;2023-04-08T07:35:35;11.77;;;9.85;;
19137;SDS011;68178;52.188;5.598;2023-04-08T07:38:00;9.60;;;8.68;;
19137;SDS011;68178;52.188;5.598;2023-04-08T07:40:26;9.63;;;8.63;;
19137;SDS011;68178;52.188;5.598;2023-04-08T07:42:55;9.50;;;8.68;;
19137;SDS011;68178;52.188;5.598;2023-04-08T07:45:20;10.15;;;9.15;;
19137;SDS011;68178;52.188;5.598;2023-04-08T07:47:46;12.80;;;8.80;;
19137;SDS011;68178;52.188;5.598;2023-04-08T07:50:12;10.52;;;9.40;;
19137;SDS011;68178;52.188;5.598;2023-04-08T07:52:37;10.20;;;9.13;;
19137;SDS011;68178;52.188;5.598;2023-04-08T07:55:03;10.45;;;9.35;;
19137;SDS011;68178;52.188;5.598;2023-04-08T07:57:29;20.92;;;9.15;;
19137;SDS011;68178;52.188;5.598;2023-04-08T07:59:55;14.77;;;9.60;;
19137;SDS011;68178;52.188;5.598;2023-04-08T08:02:21;12.10;;;8.80;;
19137;SDS011;68178;52.188;5.598;2023-04-08T08:04:46;9.75;;;8.70;;
19137;SDS011;68178;52.188;5.598;2023-04-08T08:07:12;11.65;;;9.15;;
19137;SDS011;68178;52.188;5.598;2023-04-08T08:09:37;10.00;;;8.98;;
19137;SDS011;68178;52.188;5.598;2023-04-08T08:12:03;9.65;;;8.70;;
19137;SDS011;68178;52.188;5.598;2023-04-08T08:14:28;21.45;;;11.48;;
19137;SDS011;68178;52.188;5.598;2023-04-08T08:16:54;17.58;;;10.10;;
19137;SDS011;68178;52.188;5.598;2023-04-08T08:19:20;10.10;;;8.75;;
19137;SDS011;68178;52.188;5.598;2023-04-08T08:21:46;10.20;;;9.20;;
19137;SDS011;68178;52.188;5.598;2023-04-08T08:24:11;9.38;;;8.38;;
19137;SDS011;68178;52.188;5.598;2023-04-08T08:26:37;11.65;;;10.43;;
19137;SDS011;68178;52.188;5.598;2023-04-08T08:29:03;11.73;;;9.30;;
19137;SDS011;68178;52.188;5.598;2023-04-08T08:31:29;9.95;;;8.95;;
19137;SDS011;68178;52.188;5.598;2023-04-08T08:33:55;11.57;;;9.15;;
19137;SDS011;68178;52.188;5.598;2023-04-08T08:36:20;9.55;;;8.57;;
19137;SDS011;68178;52.188;5.598;2023-04-08T08:38:46;10.23;;;8.63;;
19137;SDS011;68178;52.188;5.598;2023-04-08T08:41:12;11.40;;;8.98;;
19137;SDS011;68178;52.188;5.598;2023-04-08T08:43:37;11.75;;;9.15;;
19137;SDS011;68178;52.188;5.598;2023-04-08T08:46:03;9.52;;;8.63;;
19137;SDS011;68178;52.188;5.598;2023-04-08T08:48:30;9.27;;;8.23;;
19137;SDS011;68178;52.188;5.598;2023-04-08T08:50:56;9.48;;;8.55;;
19137;SDS011;68178;52.188;5.598;2023-04-08T08:53:27;11.73;;;9.90;;
19137;SDS011;68178;52.188;5.598;2023-04-08T08:55:53;9.85;;;8.82;;
19137;SDS011;68178;52.188;5.598;2023-04-08T08:58:19;10.50;;;8.60;;
19137;SDS011;68178;52.188;5.598;2023-04-08T09:00:44;10.20;;;8.43;;
19137;SDS011;68178;52.188;5.598;2023-04-08T09:11:17;8.60;;;7.80;;
19137;SDS011;68178;52.188;5.598;2023-04-08T09:13:45;9.30;;;8.38;;
19137;SDS011;68178;52.188;5.598;2023-04-08T09:16:13;9.18;;;8.27;;
19137;SDS011;68178;52.188;5.598;2023-04-08T09:18:42;11.07;;;8.68;;
19137;SDS011;68178;52.188;5.598;2023-04-08T09:21:13;10.35;;;9.10;;
19137;SDS011;68178;52.188;5.598;2023-04-08T09:26:11;10.00;;;9.00;;
19137;SDS011;68178;52.188;5.598;2023-04-08T09:28:39;9.38;;;8.25;;
19137;SDS011;68178;52.188;5.598;2023-04-08T09:31:21;9.23;;;8.32;;
19137;SDS011;68178;52.188;5.598;2023-04-08T09:33:48;11.20;;;8.68;;
19137;SDS011;68178;52.188;5.598;2023-04-08T09:36:15;9.32;;;8.27;;
19137;SDS011;68178;52.188;5.598;2023-04-08T09:38:44;11.13;;;8.90;;
19137;SDS011;68178;52.188;5.598;2023-04-08T09:41:12;10.35;;;8.70;;
19137;SDS011;68178;52.188;5.598;2023-04-08T09:43:57;10.13;;;9.23;;
19137;SDS011;68178;52.188;5.598;2023-04-08T09:46:25;9.75;;;8.75;;
19137;SDS011;68178;52.188;5.598;2023-04-08T09:49:11;11.57;;;9.13;;
19137;SDS011;68178;52.188;5.598;2023-04-08T09:51:49;10.30;;;8.65;;
19137;SDS011;68178;52.188;5.598;2023-04-08T09:54:39;9.90;;;8.93;;
19137;SDS011;68178;52.188;5.598;2023-04-08T09:57:10;10.07;;;9.07;;
19137;SDS011;68178;52.188;5.598;2023-04-08T09:59:41;9.50;;;8.55;;
19137;SDS011;68178;52.188;5.598;2023-04-08T10:02:15;14.00;;;8.60;;
19137;SDS011;68178;52.188;5.598;2023-04-08T10:04:49;8.00;;;7.20;;
19137;SDS011;68178;52.188;5.598;2023-04-08T10:07:17;8.82;;;7.95;;
19137;SDS011;68178;52.188;5.598;2023-04-08T10:09:43;10.75;;;8.05;;
19137;SDS011;68178;52.188;5.598;2023-04-08T10:12:09;9.05;;;8.15;;
19137;SDS011;68178;52.188;5.598;2023-04-08T10:14:34;8.90;;;8.00;;
19137;SDS011;68178;52.188;5.598;2023-04-08T10:19:48;9.70;;;8.80;;
19137;SDS011;68178;52.188;5.598;2023-04-08T10:27:41;8.75;;;7.88;;
19137;SDS011;68178;52.188;5.598;2023-04-08T10:33:04;8.57;;;7.70;;
19137;SDS011;68178;52.188;5.598;2023-04-08T10:35:42;9.18;;;7.60;;
19137;SDS011;68178;52.188;5.598;2023-04-08T10:38:14;8.55;;;7.65;;
19137;SDS011;68178;52.188;5.598;2023-04-08T10:40:42;8.38;;;7.60;;
19137;SDS011;68178;52.188;5.598;2023-04-08T10:43:15;8.88;;;7.50;;
19137;SDS011;68178;52.188;5.598;2023-04-08T10:45:42;8.05;;;7.25;;
19137;SDS011;68178;52.188;5.598;2023-04-08T10:48:13;10.77;;;7.95;;
19137;SDS011;68178;52.188;5.598;2023-04-08T10:50:56;12.05;;;9.23;;
19137;SDS011;68178;52.188;5.598;2023-04-08T10:53:29;7.80;;;7.10;;
19137;SDS011;68178;52.188;5.598;2023-04-08T10:58:31;8.57;;;7.75;;
19137;SDS011;68178;52.188;5.598;2023-04-08T11:01:02;8.73;;;7.82;;
19137;SDS011;68178;52.188;5.598;2023-04-08T11:03:30;7.63;;;6.50;;
19137;SDS011;68178;52.188;5.598;2023-04-08T11:05:58;8.65;;;7.60;;
19137;SDS011;68178;52.188;5.598;2023-04-08T11:08:30;9.07;;;8.18;;
19137;SDS011;68178;52.188;5.598;2023-04-08T11:10:57;8.25;;;7.40;;
19137;SDS011;68178;52.188;5.598;2023-04-08T11:13:25;7.82;;;7.10;;
19137;SDS011;68178;52.188;5.598;2023-04-08T11:15:51;9.40;;;7.78;;
19137;SDS011;68178;52.188;5.598;2023-04-08T11:18:17;8.80;;;7.43;;
19137;SDS011;68178;52.188;5.598;2023-04-08T11:20:43;10.77;;;8.30;;
19137;SDS011;68178;52.188;5.598;2023-04-08T11:23:12;7.60;;;6.82;;
19137;SDS011;68178;52.188;5.598;2023-04-08T11:25:39;9.35;;;7.60;;
19137;SDS011;68178;52.188;5.598;2023-04-08T11:28:09;8.57;;;7.50;;
19137;SDS011;68178;52.188;5.598;2023-04-08T11:30:39;8.30;;;7.43;;
19137;SDS011;68178;52.188;5.598;2023-04-08T11:33:05;7.95;;;7.03;;
19137;SDS011;68178;52.188;5.598;2023-04-08T11:35:32;7.70;;;6.60;;
19137;SDS011;68178;52.188;5.598;2023-04-08T11:37:57;8.55;;;7.57;;
19137;SDS011;68178;52.188;5.598;2023-04-08T11:40:35;8.20;;;6.88;;
19137;SDS011;68178;52.188;5.598;2023-04-08T11:43:08;8.52;;;6.80;;
19137;SDS011;68178;52.188;5.598;2023-04-08T11:45:39;9.05;;;7.00;;
19137;SDS011;68178;52.188;5.598;2023-04-08T11:48:12;8.32;;;7.53;;
19137;SDS011;68178;52.188;5.598;2023-04-08T11:50:39;7.45;;;6.72;;
19137;SDS011;68178;52.188;5.598;2023-04-08T11:56:20;7.15;;;6.45;;
19137;SDS011;68178;52.188;5.598;2023-04-08T11:58:50;6.75;;;6.15;;
19137;SDS011;68178;52.188;5.598;2023-04-08T12:01:16;6.63;;;5.95;;
19137;SDS011;68178;52.188;5.598;2023-04-08T12:03:58;6.25;;;5.70;;
19137;SDS011;68178;52.188;5.598;2023-04-08T12:06:25;6.00;;;5.40;;
19137;SDS011;68178;52.188;5.598;2023-04-08T12:08:52;7.50;;;6.80;;
19137;SDS011;68178;52.188;5.598;2023-04-08T12:11:18;7.63;;;6.82;;
19137;SDS011;68178;52.188;5.598;2023-04-08T12:13:44;6.97;;;6.38;;
19137;SDS011;68178;52.188;5.598;2023-04-08T12:16:10;6.78;;;6.07;;
19137;SDS011;68178;52.188;5.598;2023-04-08T12:18:36;7.35;;;6.68;;
19137;SDS011;68178;52.188;5.598;2023-04-08T12:21:02;7.38;;;6.38;;
19137;SDS011;68178;52.188;5.598;2023-04-08T12:23:27;7.22;;;6.50;;
19137;SDS011;68178;52.188;5.598;2023-04-08T12:25:53;5.70;;;5.22;;
19137;SDS011;68178;52.188;5.598;2023-04-08T12:28:18;6.05;;;5.60;;
19137;SDS011;68178;52.188;5.598;2023-04-08T12:30:44;5.88;;;5.30;;
19137;SDS011;68178;52.188;5.598;2023-04-08T12:33:10;5.97;;;5.43;;
19137;SDS011;68178;52.188;5.598;2023-04-08T12:35:36;5.97;;;5.40;;
19137;SDS011;68178;52.188;5.598;2023-04-08T12:38:04;5.80;;;5.30;;
19137;SDS011;68178;52.188;5.598;2023-04-08T12:40:30;5.43;;;4.97;;
19137;SDS011;68178;52.188;5.598;2023-04-08T12:42:56;5.18;;;4.55;;
19137;SDS011;68178;52.188;5.598;2023-04-08T12:45:21;5.57;;;5.07;;
19137;SDS011;68178;52.188;5.598;2023-04-08T12:47:47;6.05;;;4.63;;
19137;SDS011;68178;52.188;5.598;2023-04-08T12:50:12;8.48;;;4.47;;
19137;SDS011;68178;52.188;5.598;2023-04-08T12:52:41;4.97;;;4.50;;
19137;SDS011;68178;52.188;5.598;2023-04-08T12:55:07;6.13;;;5.53;;
19137;SDS011;68178;52.188;5.598;2023-04-08T12:57:32;6.00;;;5.38;;
19137;SDS011;68178;52.188;5.598;2023-04-08T12:59:58;6.40;;;5.70;;
19137;SDS011;68178;52.188;5.598;2023-04-08T13:02:23;6.35;;;5.53;;
19137;SDS011;68178;52.188;5.598;2023-04-08T13:04:50;7.50;;;6.03;;
19137;SDS011;68178;52.188;5.598;2023-04-08T13:07:17;6.03;;;5.43;;
19137;SDS011;68178;52.188;5.598;2023-04-08T13:09:43;7.07;;;6.38;;
19137;SDS011;68178;52.188;5.598;2023-04-08T13:12:08;6.78;;;6.18;;
19137;SDS011;68178;52.188;5.598;2023-04-08T13:14:36;7.63;;;6.93;;
19137;SDS011;68178;52.188;5.598;2023-04-08T13:17:02;6.78;;;6.18;;
19137;SDS011;68178;52.188;5.598;2023-04-08T13:19:27;7.88;;;7.05;;
19137;SDS011;68178;52.188;5.598;2023-04-08T13:21:53;7.82;;;7.03;;
19137;SDS011;68178;52.188;5.598;2023-04-08T13:24:19;7.93;;;7.22;;
19137;SDS011;68178;52.188;5.598;2023-04-08T13:26:44;8.45;;;7.65;;
19137;SDS011;68178;52.188;5.598;2023-04-08T13:29:10;9.38;;;6.90;;
19137;SDS011;68178;52.188;5.598;2023-04-08T13:31:35;8.15;;;7.38;;
19137;SDS011;68178;52.188;5.598;2023-04-08T13:34:02;7.57;;;6.90;;
19137;SDS011;68178;52.188;5.598;2023-04-08T13:36:28;8.13;;;7.40;;
19137;SDS011;68178;52.188;5.598;2023-04-08T13:38:55;8.35;;;7.55;;
19137;SDS011;68178;52.188;5.598;2023-04-08T13:41:21;7.80;;;7.10;;
19137;SDS011;68178;52.188;5.598;2023-04-08T13:43:47;7.60;;;6.90;;
19137;SDS011;68178;52.188;5.598;2023-04-08T13:46:15;8.07;;;7.25;;
19137;SDS011;68178;52.188;5.598;2023-04-08T13:48:41;8.63;;;7.53;;
19137;SDS011;68178;52.188;5.598;2023-04-08T13:51:10;8.23;;;7.40;;
19137;SDS011;68178;52.188;5.598;2023-04-08T13:53:35;8.43;;;7.47;;
19137;SDS011;68178;52.188;5.598;2023-04-08T13:56:01;7.45;;;6.82;;
19137;SDS011;68178;52.188;5.598;2023-04-08T13:58:27;8.50;;;7.70;;
19137;SDS011;68178;52.188;5.598;2023-04-08T14:00:52;7.90;;;7.05;;
19137;SDS011;68178;52.188;5.598;2023-04-08T14:03:18;7.43;;;6.72;;
19137;SDS011;68178;52.188;5.598;2023-04-08T14:05:45;7.60;;;6.95;;
19137;SDS011;68178;52.188;5.598;2023-04-08T14:08:11;6.57;;;6.00;;
19137;SDS011;68178;52.188;5.598;2023-04-08T14:10:37;8.13;;;7.38;;
19137;SDS011;68178;52.188;5.598;2023-04-08T14:13:03;9.18;;;8.15;;
19137;SDS011;68178;52.188;5.598;2023-04-08T14:15:29;7.72;;;6.95;;
19137;SDS011;68178;52.188;5.598;2023-04-08T14:17:54;7.60;;;6.90;;
19137;SDS011;68178;52.188;5.598;2023-04-08T14:20:21;8.38;;;7.78;;
19137;SDS011;68178;52.188;5.598;2023-04-08T14:22:49;8.00;;;7.40;;
19137;SDS011;68178;52.188;5.598;2023-04-08T14:25:15;7.93;;;7.20;;
19137;SDS011;68178;52.188;5.598;2023-04-08T14:27:40;8.55;;;7.85;;
19137;SDS011;68178;52.188;5.598;2023-04-08T14:30:06;7.78;;;7.10;;
19137;SDS011;68178;52.188;5.598;2023-04-08T14:32:32;7.70;;;7.00;;
19137;SDS011;68178;52.188;5.598;2023-04-08T14:34:57;8.30;;;7.50;;
19137;SDS011;68178;52.188;5.598;2023-04-08T14:37:23;8.80;;;8.00;;
19137;SDS011;68178;52.188;5.598;2023-04-08T14:39:49;8.10;;;7.35;;
19137;SDS011;68178;52.188;5.598;2023-04-08T14:42:14;7.68;;;6.97;;
19137;SDS011;68178;52.188;5.598;2023-04-08T14:44:42;7.13;;;6.60;;
19137;SDS011;68178;52.188;5.598;2023-04-08T14:47:08;6.25;;;5.65;;
19137;SDS011;68178;52.188;5.598;2023-04-08T14:49:34;8.10;;;7.30;;
19137;SDS011;68178;52.188;5.598;2023-04-08T14:52:00;7.30;;;6.70;;
19137;SDS011;68178;52.188;5.598;2023-04-08T14:54:25;9.15;;;7.88;;
19137;SDS011;68178;52.188;5.598;2023-04-08T14:56:51;9.63;;;8.73;;
19137;SDS011;68178;52.188;5.598;2023-04-08T14:59:17;9.80;;;8.80;;
19137;SDS011;68178;52.188;5.598;2023-04-08T15:01:43;9.30;;;8.50;;
19137;SDS011;68178;52.188;5.598;2023-04-08T15:04:09;12.13;;;9.30;;
19137;SDS011;68178;52.188;5.598;2023-04-08T15:06:34;9.88;;;8.98;;